createdAt,value
2022-09-15T00:01:09.968Z,97041.15
2022-09-15T00:03:44.313Z,97040.77
2022-09-15T00:06:11.146Z,97043.55
2022-09-15T00:08:38.937Z,97042.86
2022-09-15T00:11:09.527Z,97037.39
2022-09-15T00:13:38.652Z,97028.85
2022-09-15T00:16:06.822Z,97022.62
2022-09-15T00:18:34.643Z,97025.63
2022-09-15T00:21:12.039Z,97028.56
2022-09-15T00:23:39.257Z,97033.17
2022-09-15T00:26:12.020Z,97030.79
2022-09-15T00:28:39.475Z,97025.94
2022-09-15T00:31:12.187Z,97025.01
2022-09-15T00:33:41.148Z,97024.02
2022-09-15T00:36:11.333Z,97022.98
2022-09-15T00:38:41.424Z,97018.22
2022-09-15T00:41:10.873Z,97021.94
2022-09-15T00:44:02.246Z,97020.58
2022-09-15T00:46:33.312Z,97025.17
2022-09-15T00:49:17.887Z,97017.08
2022-09-15T00:51:48.681Z,97011.69
2022-09-15T00:54:26.483Z,97011.30
2022-09-15T00:56:56.507Z,96999.72
2022-09-15T00:59:27.980Z,96993.66
2022-09-15T01:02:12.232Z,96992.45
2022-09-15T01:04:39.151Z,96990.01
2022-09-15T01:07:09.164Z,96997.06
2022-09-15T01:09:49.561Z,96989.27
2022-09-15T01:12:16.438Z,96988.42
2022-09-15T01:14:43.136Z,96986.59
2022-09-15T01:17:54.990Z,96979.84
2022-09-15T01:20:37.893Z,96983.84
2022-09-15T01:23:16.954Z,96978.42
2022-09-15T01:25:45.921Z,96970.29
2022-09-15T01:28:29.621Z,96969.38
2022-09-15T01:31:03.665Z,96965.54
2022-09-15T01:33:39.912Z,96966.24
2022-09-15T01:36:21.361Z,96974.86
2022-09-15T01:39:02.107Z,96965.17
2022-09-15T01:41:55.447Z,96962.94
2022-09-15T01:44:49.402Z,96963.23
2022-09-15T01:47:19.828Z,96953.44
2022-09-15T01:49:51.681Z,96948.57
2022-09-15T01:52:21.351Z,96943.06
2022-09-15T01:54:53.270Z,96943.55
2022-09-15T01:57:21.510Z,96941.45
2022-09-15T01:59:50.203Z,96939.27
2022-09-15T02:02:35.295Z,96939.27
2022-09-15T02:05:10.759Z,96932.94
2022-09-15T02:07:49.754Z,96918.61
2022-09-15T02:10:24.219Z,96919.29
2022-09-15T02:12:59.405Z,96915.27
2022-09-15T02:15:32.901Z,96913.01
2022-09-15T02:18:03.455Z,96911.27
2022-09-15T02:20:38.422Z,96908.42
2022-09-15T02:23:24.271Z,96909.02
2022-09-15T02:25:56.704Z,96901.71
2022-09-15T02:28:30.711Z,96909.14
2022-09-15T02:30:59.162Z,96900.93
2022-09-15T02:33:31.743Z,96909.58
2022-09-15T02:35:58.949Z,96907.88
2022-09-15T02:38:29.654Z,96911.58
2022-09-15T02:40:56.536Z,96906.90
2022-09-15T02:43:23.540Z,96905.84
2022-09-15T02:45:53.410Z,96895.75
2022-09-15T02:48:21.518Z,96882.73
2022-09-15T02:50:49.410Z,96875.35
2022-09-15T02:53:16.072Z,96880.05
2022-09-15T02:55:42.893Z,96873.89
2022-09-15T02:58:09.958Z,96870.35
2022-09-15T03:00:38.726Z,96866.08
2022-09-15T03:03:05.510Z,96860.40
2022-09-15T03:05:35.227Z,96857.15
2022-09-15T03:08:02.452Z,96858.02
2022-09-15T03:10:32.206Z,96853.90
2022-09-15T03:12:58.935Z,96850.95
2022-09-15T03:15:26.327Z,96853.07
2022-09-15T03:17:53.772Z,96856.88
2022-09-15T03:20:27.653Z,96854.84
2022-09-15T03:22:54.708Z,96847.67
2022-09-15T03:25:21.520Z,96849.73
2022-09-15T03:27:48.162Z,96850.36
2022-09-15T03:30:18.283Z,96855.36
2022-09-15T03:32:44.977Z,96854.31
2022-09-15T03:35:11.734Z,96855.20
2022-09-15T03:37:38.520Z,96855.84
2022-09-15T03:40:06.068Z,96861.81
2022-09-15T03:42:32.827Z,96859.39
2022-09-15T03:44:59.636Z,96847.81
2022-09-15T03:47:26.481Z,96834.88
2022-09-15T03:49:53.026Z,96831.95
2022-09-15T03:52:19.686Z,96822.10
2022-09-15T03:54:48.266Z,96820.33
2022-09-15T03:57:15.014Z,96817.30
2022-09-15T03:59:42.061Z,96812.53
2022-09-15T04:02:08.773Z,96806.73
2022-09-15T04:04:36.340Z,96794.65
2022-09-15T04:07:03.015Z,96797.83
2022-09-15T04:09:30.852Z,96797.38
2022-09-15T04:11:57.539Z,96795.31
2022-09-15T04:14:24.200Z,96801.23
2022-09-15T04:16:50.845Z,96797.99
2022-09-15T04:19:17.539Z,96791.48
2022-09-15T04:21:45.179Z,96785.79
2022-09-15T04:24:11.997Z,96783.95
2022-09-15T04:26:38.934Z,96782.89
2022-09-15T04:29:13.025Z,96784.27
2022-09-15T04:31:39.798Z,96789.65
2022-09-15T04:34:06.426Z,96796.38
2022-09-15T04:36:33.333Z,96799.88
2022-09-15T04:39:00.086Z,96806.67
2022-09-15T04:41:27.682Z,96804.92
2022-09-15T04:43:54.736Z,96805.41
2022-09-15T04:46:21.725Z,96811.46
2022-09-15T04:48:49.037Z,96817.98
2022-09-15T04:51:18.868Z,96819.19
2022-09-15T04:53:47.640Z,96819.49
2022-09-15T04:56:17.921Z,96810.88
2022-09-15T04:58:50.862Z,96790.64
2022-09-15T05:01:25.385Z,96768.08
2022-09-15T05:03:52.584Z,96765.94
2022-09-15T05:06:22.989Z,96764.27
2022-09-15T05:08:52.219Z,96762.37
2022-09-15T05:11:19.503Z,96773.60
2022-09-15T05:13:47.401Z,96775.34
2022-09-15T05:16:16.836Z,96779.30
2022-09-15T05:18:46.363Z,96787.48
2022-09-15T05:21:15.597Z,96789.73
2022-09-15T05:23:43.151Z,96792.79
2022-09-15T05:26:17.142Z,96793.55
2022-09-15T05:28:44.373Z,96797.96
2022-09-15T05:31:17.631Z,96795.46
2022-09-15T05:33:45.974Z,96793.52
2022-09-15T05:36:14.648Z,96789.02
2022-09-15T05:38:42.058Z,96789.77
2022-09-15T05:41:16.439Z,96787.48
2022-09-15T05:43:45.935Z,96782.43
2022-09-15T05:46:13.687Z,96787.59
2022-09-15T05:48:40.973Z,96790.05
2022-09-15T05:51:08.286Z,96792.06
2022-09-15T05:53:36.075Z,96790.69
2022-09-15T05:56:10.069Z,96791.04
2022-09-15T05:58:43.458Z,96792.20
2022-09-15T06:01:16.986Z,96794.48
2022-09-15T06:03:44.026Z,96798.80
2022-09-15T06:06:11.639Z,96805.48
2022-09-15T06:08:44.249Z,96808.83
2022-09-15T06:11:15.033Z,96805.44
2022-09-15T06:13:43.769Z,96809.55
2022-09-15T06:16:13.728Z,96812.17
2022-09-15T06:18:41.898Z,96806.46
2022-09-15T06:21:11.856Z,96807.34
2022-09-15T06:23:39.681Z,96817.84
2022-09-15T06:26:17.916Z,96822.23
2022-09-15T06:28:57.153Z,96837.53
2022-09-15T06:31:26.889Z,96845.84
2022-09-15T06:33:57.191Z,96846.27
2022-09-15T06:36:26.733Z,96845.49
2022-09-15T06:38:54.656Z,96853.98
2022-09-15T06:41:21.955Z,96850.02
2022-09-15T06:43:48.943Z,96852.91
2022-09-15T06:46:21.903Z,96855.41
2022-09-15T06:48:50.717Z,96856.52
2022-09-15T06:51:20.179Z,96853.17
2022-09-15T06:53:47.972Z,96851.52
2022-09-15T06:56:17.580Z,96856.70
2022-09-15T06:58:48.808Z,96863.69
2022-09-15T07:01:21.978Z,96864.19
2022-09-15T07:03:50.624Z,96867.21
2022-09-15T07:06:18.570Z,96874.80
2022-09-15T07:08:56.847Z,96886.04
2022-09-15T07:11:24.999Z,96894.73
2022-09-15T07:13:52.225Z,96898.81
2022-09-15T07:16:20.496Z,96912.66
2022-09-15T07:18:51.398Z,96922.27
2022-09-15T07:21:19.900Z,96916.41
2022-09-15T07:23:48.195Z,96912.86
2022-09-15T07:26:19.542Z,96915.15
2022-09-15T07:28:49.730Z,96914.03
2022-09-15T07:31:20.175Z,96916.60
2022-09-15T07:33:49.106Z,96915.11
2022-09-15T07:36:17.083Z,96916.92
2022-09-15T07:38:47.353Z,96926.46
2022-09-15T07:41:17.771Z,96939.39
2022-09-15T07:43:50.916Z,96946.85
2022-09-15T07:46:19.629Z,96945.98
2022-09-15T07:48:48.520Z,96951.98
2022-09-15T07:51:16.782Z,96953.71
2022-09-15T07:53:48.114Z,96954.30
2022-09-15T07:56:20.542Z,96953.31
2022-09-15T07:58:51.898Z,96952.16
2022-09-15T08:01:26.535Z,96965.11
2022-09-15T08:03:54.007Z,96974.87
2022-09-15T08:06:24.259Z,96977.45
2022-09-15T08:08:59.347Z,96970.90
2022-09-15T08:11:28.491Z,96963.79
2022-09-15T08:13:55.576Z,96962.32
2022-09-15T08:16:24.015Z,96971.54
2022-09-15T08:18:55.003Z,96975.80
2022-09-15T08:21:27.850Z,96981.61
2022-09-15T08:24:01.139Z,96989.14
2022-09-15T08:26:30.028Z,96992.48
2022-09-15T08:29:03.507Z,97000.00
2022-09-15T08:31:30.337Z,97004.30
2022-09-15T08:33:59.868Z,97001.26
2022-09-15T08:36:55.839Z,97001.65
2022-09-15T08:39:24.381Z,97004.98
2022-09-15T08:42:11.811Z,97009.27
2022-09-15T08:45:18.410Z,97006.86
2022-09-15T08:47:51.034Z,97001.05
2022-09-15T08:50:27.868Z,96998.31
2022-09-15T08:53:02.923Z,96994.58
2022-09-15T08:56:20.658Z,96986.58
2022-09-15T08:58:50.673Z,96985.02
2022-09-15T09:01:40.584Z,96985.80
2022-09-15T09:04:21.385Z,96991.83
2022-09-15T09:06:53.917Z,96990.88
2022-09-15T09:09:39.842Z,96998.61
2022-09-15T09:12:33.862Z,96990.92
2022-09-15T09:15:31.420Z,96985.95
2022-09-15T09:18:21.594Z,96984.42
2022-09-15T09:20:58.332Z,96996.73
2022-09-15T09:23:28.873Z,97001.92
2022-09-15T09:26:04.779Z,96999.98
2022-09-15T09:29:12.238Z,96999.17
2022-09-15T09:31:40.450Z,97000.58
2022-09-15T09:34:20.064Z,97004.73
2022-09-15T09:36:57.405Z,97004.83
2022-09-15T09:39:26.349Z,97002.61
2022-09-15T09:41:54.220Z,96998.75
2022-09-15T09:44:31.039Z,96998.22
2022-09-15T09:47:01.792Z,96998.62
2022-09-15T09:49:47.594Z,97009.36
2022-09-15T09:52:33.658Z,97011.27
2022-09-15T09:55:22.960Z,97021.17
2022-09-15T09:57:50.522Z,97018.82
2022-09-15T10:00:33.122Z,97011.09
2022-09-15T10:03:16.638Z,97011.54
2022-09-15T10:05:45.658Z,97018.25
2022-09-15T10:08:18.889Z,97016.84
2022-09-15T10:10:55.374Z,97002.64
2022-09-15T10:13:22.212Z,96995.10
2022-09-15T10:15:59.437Z,96996.13
2022-09-15T10:18:27.947Z,96995.10
2022-09-15T10:20:58.656Z,96994.06
2022-09-15T10:23:31.016Z,96993.58
2022-09-15T10:26:19.439Z,96992.48
2022-09-15T10:29:18.079Z,96987.97
2022-09-15T10:31:46.182Z,96991.55
2022-09-15T10:34:32.407Z,96984.54
2022-09-15T10:37:31.349Z,96994.70
2022-09-15T10:40:00.948Z,96993.34
2022-09-15T10:42:51.252Z,96998.16
2022-09-15T10:45:39.842Z,97000.30
2022-09-15T10:52:51.104Z,96986.39
2022-09-15T10:55:53.546Z,96992.21
2022-09-15T10:58:43.517Z,96986.56
2022-09-15T11:01:57.099Z,96976.46
2022-09-15T11:04:32.913Z,96975.81
2022-09-15T11:07:12.577Z,96971.37
2022-09-15T11:09:47.565Z,96954.63
2022-09-15T11:12:47.558Z,96953.92
2022-09-15T11:15:14.815Z,96957.05
2022-09-15T11:18:20.355Z,96949.10
2022-09-15T11:21:12.175Z,96940.05
2022-09-15T11:24:56.134Z,96934.70
2022-09-15T11:28:02.969Z,96928.05
2022-09-15T11:30:37.154Z,96925.65
2022-09-15T11:33:19.892Z,96922.20
2022-09-15T11:36:08.535Z,96923.99
2022-09-15T11:39:02.222Z,96929.25
2022-09-15T11:41:41.242Z,96937.64
2022-09-15T11:44:17.702Z,96928.71
2022-09-15T11:47:16.787Z,96933.79
2022-09-15T11:50:07.181Z,96929.28
2022-09-15T11:52:36.804Z,96924.56
2022-09-15T11:55:32.645Z,96929.30
2022-09-15T11:58:21.862Z,96925.02
2022-09-15T12:01:01.489Z,96922.84
2022-09-15T12:03:36.788Z,96921.56
2022-09-15T12:06:12.894Z,96929.84
2022-09-15T12:08:57.821Z,96931.48
2022-09-15T12:11:28.030Z,96925.42
2022-09-15T12:13:59.482Z,96923.73
2022-09-15T12:16:35.759Z,96924.54
2022-09-15T12:19:37.078Z,96917.44
2022-09-15T12:22:25.734Z,96912.63
2022-09-15T12:25:01.344Z,96910.42
2022-09-15T12:27:29.828Z,96903.95
2022-09-15T12:30:00.786Z,96894.88
2022-09-15T12:32:47.779Z,96896.19
2022-09-15T12:35:23.844Z,96901.10
2022-09-15T12:37:59.959Z,96902.20
2022-09-15T12:40:36.024Z,96899.67
2022-09-15T12:43:27.488Z,96895.42
2022-09-15T12:45:58.041Z,96890.96
2022-09-15T12:48:28.879Z,96890.39
2022-09-15T12:51:02.540Z,96891.17
2022-09-15T12:57:37.252Z,96886.06
2022-09-15T13:06:09.710Z,96881.92
2022-09-15T13:08:36.313Z,96871.45
2022-09-15T13:11:13.724Z,96864.07
2022-09-15T13:13:43.199Z,96856.54
2022-09-15T13:16:43.124Z,96849.86
2022-09-15T13:19:32.872Z,96850.95
2022-09-15T13:22:10.126Z,96857.90
2022-09-15T13:24:42.706Z,96843.09
2022-09-15T13:27:11.528Z,96838.84
2022-09-15T13:29:46.419Z,96846.32
2022-09-15T13:32:37.429Z,96843.96
2022-09-15T13:35:42.470Z,96843.17
2022-09-15T13:38:31.922Z,96843.37
2022-09-15T13:41:50.474Z,96846.66
2022-09-15T13:44:38.311Z,96848.05
2022-09-15T13:47:37.809Z,96850.07
2022-09-15T13:50:32.631Z,96852.19
2022-09-15T13:53:23.611Z,96854.62
2022-09-15T13:55:55.137Z,96851.23
2022-09-15T14:01:12.678Z,96850.27
2022-09-15T14:03:47.746Z,96848.62
2022-09-15T14:06:22.955Z,96847.63
2022-09-15T14:08:55.240Z,96846.59
2022-09-15T14:11:32.585Z,96849.25
2022-09-15T14:14:00.410Z,96845.54
2022-09-15T14:16:27.494Z,96846.55
2022-09-15T14:18:57.841Z,96838.84
2022-09-15T14:21:28.880Z,96834.63
2022-09-15T14:24:02.041Z,96827.17
2022-09-15T14:26:32.730Z,96816.95
2022-09-15T14:32:01.355Z,96792.83
2022-09-15T14:34:38.138Z,96789.92
2022-09-15T14:37:19.206Z,96787.98
2022-09-15T14:39:50.941Z,96787.57
2022-09-15T14:42:22.095Z,96776.28
2022-09-15T14:47:39.412Z,96782.13
2022-09-15T14:50:11.860Z,96782.01
2022-09-15T14:52:42.690Z,96778.42
2022-09-15T14:55:31.453Z,96774.43
2022-09-15T14:58:12.991Z,96774.61
2022-09-15T15:00:57.017Z,96782.71
2022-09-15T15:03:29.711Z,96781.02
2022-09-15T15:06:28.338Z,96777.30
2022-09-15T15:09:01.342Z,96777.57
2022-09-15T15:11:31.055Z,96777.64
2022-09-15T15:13:58.825Z,96774.62
2022-09-15T15:16:28.523Z,96767.90
2022-09-15T15:18:56.673Z,96768.89
2022-09-15T15:21:47.812Z,96773.34
2022-09-15T15:24:19.393Z,96774.91
2022-09-15T15:26:49.064Z,96772.27
2022-09-15T15:29:49.032Z,96768.70
2022-09-15T15:32:21.139Z,96771.67
2022-09-15T15:34:55.457Z,96765.44
2022-09-15T15:37:31.809Z,96765.77
2022-09-15T15:40:06.811Z,96769.69
2022-09-15T15:42:34.143Z,96777.40
2022-09-15T15:45:19.987Z,96775.09
2022-09-15T15:47:46.926Z,96771.38
2022-09-15T15:50:20.585Z,96766.82
2022-09-15T15:52:49.237Z,96758.55
2022-09-15T15:55:20.550Z,96760.02
2022-09-15T15:57:50.387Z,96759.88
2022-09-15T16:00:46.062Z,96761.69
2022-09-15T16:03:14.983Z,96756.61
2022-09-15T16:06:21.886Z,96757.07
2022-09-15T16:08:50.592Z,96753.85
2022-09-15T16:11:24.210Z,96751.78
2022-09-15T16:13:53.431Z,96742.52
2022-09-15T16:16:45.079Z,96737.26
2022-09-15T16:19:13.015Z,96741.66
2022-09-15T16:21:41.904Z,96745.65
2022-09-15T16:24:37.818Z,96747.40
2022-09-15T16:27:16.629Z,96742.36
2022-09-15T16:29:53.470Z,96734.64
2022-09-15T16:32:22.888Z,96735.17
2022-09-15T16:34:52.183Z,96733.39
2022-09-15T16:37:19.003Z,96731.14
2022-09-15T16:39:45.943Z,96730.09
2022-09-15T16:42:15.102Z,96730.23
2022-09-15T16:44:42.479Z,96734.09
2022-09-15T16:47:09.429Z,96738.04
2022-09-15T16:49:38.701Z,96738.45
2022-09-15T16:52:10.427Z,96738.81
2022-09-15T16:54:37.662Z,96748.34
2022-09-15T16:57:21.513Z,96753.14
2022-09-15T16:59:58.726Z,96749.73
2022-09-15T17:02:26.152Z,96749.24
2022-09-15T17:04:57.423Z,96752.45
2022-09-15T17:07:27.061Z,96751.94
2022-09-15T17:13:34.274Z,96759.64
2022-09-15T17:20:18.004Z,96748.27
2022-09-15T17:27:10.990Z,96749.73
2022-09-15T17:29:52.149Z,96757.52
2022-09-15T17:32:30.641Z,96756.84
2022-09-15T17:35:02.759Z,96748.56
2022-09-15T17:37:29.977Z,96745.73
2022-09-15T17:39:59.102Z,96749.84
2022-09-15T17:42:29.426Z,96749.59
2022-09-15T17:44:59.299Z,96752.35
2022-09-15T17:47:35.225Z,96749.59
2022-09-15T17:50:07.290Z,96738.34
2022-09-15T17:52:34.575Z,96723.14
2022-09-15T17:55:02.208Z,96709.69
2022-09-15T17:57:29.419Z,96707.76
2022-09-15T17:59:56.335Z,96701.35
2022-09-15T18:02:23.381Z,96697.57
2022-09-15T18:04:54.147Z,96698.69
2022-09-15T18:08:07.149Z,96697.92
2022-09-15T18:10:44.276Z,96694.36
2022-09-15T18:13:22.610Z,96695.54
2022-09-15T18:16:11.335Z,96703.80
2022-09-15T18:18:42.491Z,96704.37
2022-09-15T18:21:32.394Z,96706.84
2022-09-15T18:24:51.652Z,96703.27
2022-09-15T18:27:26.034Z,96702.91
2022-09-15T18:29:54.391Z,96694.66
2022-09-15T18:32:49.678Z,96693.15
2022-09-15T18:35:52.810Z,96709.10
2022-09-15T18:38:37.075Z,96704.27
2022-09-15T18:41:11.169Z,96694.13
2022-09-15T18:43:40.432Z,96696.36
2022-09-15T18:46:10.539Z,96700.39
2022-09-15T18:48:37.458Z,96702.43
2022-09-15T18:51:58.923Z,96698.58
2022-09-15T18:54:26.447Z,96688.43
2022-09-15T18:57:00.981Z,96678.64
2022-09-15T18:59:42.587Z,96667.71
2022-09-15T19:02:14.599Z,96666.94
2022-09-15T19:04:42.813Z,96668.91
2022-09-15T19:07:13.128Z,96670.27
2022-09-15T19:10:17.067Z,96664.44
2022-09-15T19:12:54.571Z,96662.19
2022-09-15T19:15:34.625Z,96662.26
2022-09-15T19:18:10.596Z,96652.96
2022-09-15T19:21:53.437Z,96661.38
2022-09-15T19:24:22.068Z,96675.17
2022-09-15T19:26:49.112Z,96682.04
2022-09-15T19:29:16.065Z,96681.55
2022-09-15T19:31:43.372Z,96676.50
2022-09-15T19:34:10.569Z,96672.09
2022-09-15T19:36:37.805Z,96668.45
2022-09-15T19:39:06.048Z,96675.78
2022-09-15T19:41:35.800Z,96682.20
2022-09-15T19:44:10.639Z,96681.21
2022-09-15T19:46:37.889Z,96673.87
2022-09-15T19:49:04.974Z,96674.61
2022-09-15T19:51:31.798Z,96678.88
2022-09-15T19:53:59.173Z,96677.73
2022-09-15T19:56:27.789Z,96679.52
2022-09-15T19:58:57.197Z,96682.89
2022-09-15T20:01:27.452Z,96678.06
2022-09-15T20:03:56.079Z,96679.29
2022-09-15T20:06:27.759Z,96677.02
2022-09-15T20:08:58.584Z,96679.83
2022-09-15T20:11:26.868Z,96677.29
2022-09-15T20:13:54.863Z,96680.89
2022-09-15T20:16:23.674Z,96678.94
2022-09-15T20:18:53.518Z,96679.48
2022-09-15T20:21:45.770Z,96678.18
2022-09-15T20:24:11.596Z,96676.52
2022-09-15T20:26:40.550Z,96680.81
2022-09-15T20:29:07.922Z,96681.30
2022-09-15T20:31:35.145Z,96687.27
2022-09-15T20:34:02.133Z,96699.38
2022-09-15T20:36:32.893Z,96705.14
2022-09-15T20:39:02.881Z,96708.03
2022-09-15T20:41:33.666Z,96709.56
2022-09-15T20:44:10.490Z,96707.09
2022-09-15T20:46:37.753Z,96702.29
2022-09-15T20:49:05.379Z,96703.64
2022-09-15T20:51:34.789Z,96701.72
2022-09-15T20:54:03.801Z,96705.77
2022-09-15T20:56:34.385Z,96702.64
2022-09-15T20:59:03.849Z,96704.31
2022-09-15T21:01:36.631Z,96703.95
2022-09-15T21:04:05.780Z,96699.54
2022-09-15T21:06:35.673Z,96700.30
2022-09-15T21:09:03.782Z,96693.55
2022-09-15T21:11:31.748Z,96688.52
2022-09-15T21:14:00.109Z,96688.64
2022-09-15T21:16:28.098Z,96686.58
2022-09-15T21:18:58.004Z,96694.23
2022-09-15T21:21:29.989Z,96703.27
2022-09-15T21:24:03.021Z,96707.05
2022-09-15T21:26:57.483Z,96715.81
2022-09-15T21:29:25.863Z,96719.63
2022-09-15T21:31:55.271Z,96717.52
2022-09-15T21:34:23.405Z,96726.39
2022-09-15T21:36:51.135Z,96730.29
2022-09-15T21:39:17.879Z,96734.00
2022-09-15T21:41:47.069Z,96733.61
2022-09-15T21:44:13.794Z,96732.52
2022-09-15T21:46:40.523Z,96729.13
2022-09-15T21:49:07.717Z,96722.45
2022-09-15T21:51:34.443Z,96721.27
2022-09-15T21:54:01.493Z,96718.77
2022-09-15T21:56:29.588Z,96714.52
2022-09-15T21:58:56.683Z,96720.27
2022-09-15T22:01:26.150Z,96727.33
2022-09-15T22:04:05.600Z,96727.58
2022-09-15T22:06:35.004Z,96730.09
2022-09-15T22:09:05.677Z,96730.33
2022-09-15T22:11:33.188Z,96727.35
2022-09-15T22:14:02.249Z,96727.64
2022-09-15T22:16:29.947Z,96736.10
2022-09-15T22:18:56.983Z,96739.05
2022-09-15T22:21:27.716Z,96744.63
2022-09-15T22:23:58.865Z,96746.48
2022-09-15T22:26:27.938Z,96755.08
2022-09-15T22:28:55.643Z,96751.92
2022-09-15T22:31:27.054Z,96742.15
2022-09-15T22:33:54.487Z,96739.17
2022-09-15T22:36:28.923Z,96738.34
2022-09-15T22:39:03.295Z,96735.52
2022-09-15T22:41:32.737Z,96728.29
2022-09-15T22:43:59.586Z,96727.36
2022-09-15T22:46:26.364Z,96730.23
2022-09-15T22:48:53.026Z,96734.98
2022-09-15T22:51:19.701Z,96734.88
2022-09-15T22:53:46.669Z,96731.27
2022-09-15T22:56:19.313Z,96732.95
2022-09-15T22:58:47.896Z,96731.67
2022-09-15T23:01:19.991Z,96732.27
2022-09-15T23:03:55.704Z,96727.92
2022-09-15T23:06:23.510Z,96725.83
2022-09-15T23:08:52.130Z,96728.82
2022-09-15T23:11:19.628Z,96731.02
2022-09-15T23:13:46.580Z,96730.10
2022-09-15T23:16:13.412Z,96727.30
2022-09-15T23:18:40.057Z,96724.41
2022-09-15T23:21:08.895Z,96719.42
2022-09-15T23:23:38.043Z,96724.74
2022-09-15T23:26:06.875Z,96726.48
2022-09-15T23:28:34.063Z,96728.94
2022-09-15T23:31:01.048Z,96730.80
2022-09-15T23:33:30.617Z,96738.30
2022-09-15T23:36:06.348Z,96738.73
2022-09-15T23:38:38.027Z,96741.08
2022-09-15T23:41:05.044Z,96729.30
2022-09-15T23:43:32.705Z,96731.55
2022-09-15T23:46:00.371Z,96728.39
2022-09-15T23:48:27.727Z,96721.84
2022-09-15T23:50:54.568Z,96716.20
2022-09-15T23:53:21.279Z,96716.37
2022-09-15T23:55:48.092Z,96719.40
2022-09-15T23:58:14.860Z,96711.77
